sensor_id;sensor_type;location;lat;lon;timestamp;temperature;humidity
15951;DHT22;8074;48.112;11.570;2022-11-11T00:01:20;4.60;99.90
15951;DHT22;8074;48.112;11.570;2022-11-11T00:03:48;4.70;99.90
15951;DHT22;8074;48.112;11.570;2022-11-11T00:06:15;4.90;99.90
15951;DHT22;8074;48.112;11.570;2022-11-11T00:08:46;4.90;99.90
15951;DHT22;8074;48.112;11.570;2022-11-11T00:11:14;4.80;99.90
15951;DHT22;8074;48.112;11.570;2022-11-11T00:13:42;4.60;99.90
15951;DHT22;8074;48.112;11.570;2022-11-11T00:16:10;4.60;99.90
15951;DHT22;8074;48.112;11.570;2022-11-11T00:18:39;4.60;99.90
15951;DHT22;8074;48.112;11.570;2022-11-11T00:21:36;4.60;99.90
15951;DHT22;8074;48.112;11.570;2022-11-11T00:24:23;4.50;99.90
15951;DHT22;8074;48.112;11.570;2022-11-11T00:27:09;4.40;99.90
15951;DHT22;8074;48.112;11.570;2022-11-11T00:29:37;4.20;99.90
15951;DHT22;8074;48.112;11.570;2022-11-11T00:32:04;4.20;99.90
15951;DHT22;8074;48.112;11.570;2022-11-11T00:34:53;4.40;99.90
15951;DHT22;8074;48.112;11.570;2022-11-11T00:37:39;4.50;99.90
15951;DHT22;8074;48.112;11.570;2022-11-11T00:40:07;4.60;99.90
15951;DHT22;8074;48.112;11.570;2022-11-11T00:42:34;4.60;99.90
15951;DHT22;8074;48.112;11.570;2022-11-11T00:45:01;4.60;99.90
15951;DHT22;8074;48.112;11.570;2022-11-11T00:47:28;4.60;99.90
15951;DHT22;8074;48.112;11.570;2022-11-11T00:50:14;4.60;99.90
15951;DHT22;8074;48.112;11.570;2022-11-11T00:53:00;4.60;99.90
15951;DHT22;8074;48.112;11.570;2022-11-11T00:55:27;4.60;99.90
15951;DHT22;8074;48.112;11.570;2022-11-11T00:57:54;4.50;99.90
15951;DHT22;8074;48.112;11.570;2022-11-11T01:00:21;4.50;99.90
15951;DHT22;8074;48.112;11.570;2022-11-11T01:02:48;4.60;99.90
15951;DHT22;8074;48.112;11.570;2022-11-11T01:05:15;4.50;99.90
15951;DHT22;8074;48.112;11.570;2022-11-11T01:07:42;4.50;99.90
15951;DHT22;8074;48.112;11.570;2022-11-11T01:10:10;4.30;99.90
15951;DHT22;8074;48.112;11.570;2022-11-11T01:12:37;4.20;99.90
15951;DHT22;8074;48.112;11.570;2022-11-11T01:15:05;4.20;99.90
15951;DHT22;8074;48.112;11.570;2022-11-11T01:17:32;4.20;99.90
15951;DHT22;8074;48.112;11.570;2022-11-11T01:19:59;4.10;99.90
15951;DHT22;8074;48.112;11.570;2022-11-11T01:22:27;4.20;99.90
15951;DHT22;8074;48.112;11.570;2022-11-11T01:24:54;4.20;99.90
15951;DHT22;8074;48.112;11.570;2022-11-11T01:27:22;4.30;99.90
15951;DHT22;8074;48.112;11.570;2022-11-11T01:29:49;4.10;99.90
15951;DHT22;8074;48.112;11.570;2022-11-11T01:32:16;4.00;99.90
15951;DHT22;8074;48.112;11.570;2022-11-11T01:34:43;4.10;99.90
15951;DHT22;8074;48.112;11.570;2022-11-11T01:37:10;4.10;99.90
15951;DHT22;8074;48.112;11.570;2022-11-11T01:39:37;3.90;99.90
15951;DHT22;8074;48.112;11.570;2022-11-11T01:42:03;4.00;99.90
15951;DHT22;8074;48.112;11.570;2022-11-11T01:44:43;4.10;99.90
15951;DHT22;8074;48.112;11.570;2022-11-11T01:47:10;4.20;99.90
15951;DHT22;8074;48.112;11.570;2022-11-11T01:49:44;4.10;99.90
15951;DHT22;8074;48.112;11.570;2022-11-11T01:52:17;3.90;99.90
15951;DHT22;8074;48.112;11.570;2022-11-11T01:54:48;3.80;99.90
15951;DHT22;8074;48.112;11.570;2022-11-11T01:57:18;3.90;99.90
15951;DHT22;8074;48.112;11.570;2022-11-11T01:59:53;3.80;99.90
15951;DHT22;8074;48.112;11.570;2022-11-11T02:02:28;3.50;99.90
15951;DHT22;8074;48.112;11.570;2022-11-11T02:04:58;3.50;99.90
15951;DHT22;8074;48.112;11.570;2022-11-11T02:07:45;3.50;99.90
15951;DHT22;8074;48.112;11.570;2022-11-11T02:10:12;3.80;99.90
15951;DHT22;8074;48.112;11.570;2022-11-11T02:12:39;3.80;99.90
15951;DHT22;8074;48.112;11.570;2022-11-11T02:15:24;3.80;99.90
15951;DHT22;8074;48.112;11.570;2022-11-11T02:17:51;3.90;99.90
15951;DHT22;8074;48.112;11.570;2022-11-11T02:20:22;3.90;99.90
15951;DHT22;8074;48.112;11.570;2022-11-11T02:22:51;4.00;99.90
15951;DHT22;8074;48.112;11.570;2022-11-11T02:25:26;3.90;99.90
15951;DHT22;8074;48.112;11.570;2022-11-11T02:27:58;3.70;99.90
15951;DHT22;8074;48.112;11.570;2022-11-11T02:30:26;3.50;99.90
15951;DHT22;8074;48.112;11.570;2022-11-11T02:32:53;3.40;99.90
15951;DHT22;8074;48.112;11.570;2022-11-11T02:35:22;3.50;99.90
15951;DHT22;8074;48.112;11.570;2022-11-11T02:37:51;3.60;99.90
15951;DHT22;8074;48.112;11.570;2022-11-11T02:40:20;3.70;99.90
15951;DHT22;8074;48.112;11.570;2022-11-11T02:42:50;3.70;99.90
15951;DHT22;8074;48.112;11.570;2022-11-11T02:45:17;3.80;99.90
15951;DHT22;8074;48.112;11.570;2022-11-11T02:47:44;3.80;99.90
15951;DHT22;8074;48.112;11.570;2022-11-11T02:50:11;3.60;99.90
15951;DHT22;8074;48.112;11.570;2022-11-11T02:52:38;3.80;99.90
15951;DHT22;8074;48.112;11.570;2022-11-11T02:55:05;3.90;99.90
15951;DHT22;8074;48.112;11.570;2022-11-11T02:57:33;3.60;99.90
15951;DHT22;8074;48.112;11.570;2022-11-11T03:00:01;3.60;99.90
15951;DHT22;8074;48.112;11.570;2022-11-11T03:02:28;3.60;99.90
15951;DHT22;8074;48.112;11.570;2022-11-11T03:04:56;3.60;99.90
15951;DHT22;8074;48.112;11.570;2022-11-11T03:07:24;3.60;99.90
15951;DHT22;8074;48.112;11.570;2022-11-11T03:09:51;3.70;99.90
15951;DHT22;8074;48.112;11.570;2022-11-11T03:12:18;3.70;99.90
15951;DHT22;8074;48.112;11.570;2022-11-11T03:14:45;3.70;99.90
15951;DHT22;8074;48.112;11.570;2022-11-11T03:17:13;3.80;99.90
15951;DHT22;8074;48.112;11.570;2022-11-11T03:19:57;3.70;99.90
15951;DHT22;8074;48.112;11.570;2022-11-11T03:22:38;3.60;99.90
15951;DHT22;8074;48.112;11.570;2022-11-11T03:25:05;3.50;99.90
15951;DHT22;8074;48.112;11.570;2022-11-11T03:27:50;3.60;99.90
15951;DHT22;8074;48.112;11.570;2022-11-11T03:30:17;3.60;99.90
15951;DHT22;8074;48.112;11.570;2022-11-11T03:32:45;3.50;99.90
15951;DHT22;8074;48.112;11.570;2022-11-11T03:35:12;3.20;99.90
15951;DHT22;8074;48.112;11.570;2022-11-11T03:37:39;3.30;99.90
15951;DHT22;8074;48.112;11.570;2022-11-11T03:40:23;3.30;99.90
15951;DHT22;8074;48.112;11.570;2022-11-11T03:42:50;3.30;99.90
15951;DHT22;8074;48.112;11.570;2022-11-11T03:45:17;3.10;99.90
15951;DHT22;8074;48.112;11.570;2022-11-11T03:47:45;3.30;99.90
15951;DHT22;8074;48.112;11.570;2022-11-11T03:50:12;3.30;99.90
15951;DHT22;8074;48.112;11.570;2022-11-11T03:52:40;3.40;99.90
15951;DHT22;8074;48.112;11.570;2022-11-11T03:55:07;3.40;99.90
15951;DHT22;8074;48.112;11.570;2022-11-11T03:57:39;3.40;99.90
15951;DHT22;8074;48.112;11.570;2022-11-11T04:00:07;3.40;99.90
15951;DHT22;8074;48.112;11.570;2022-11-11T04:02:35;3.40;99.90
15951;DHT22;8074;48.112;11.570;2022-11-11T04:05:20;3.40;99.90
15951;DHT22;8074;48.112;11.570;2022-11-11T04:08:09;3.30;99.90
15951;DHT22;8074;48.112;11.570;2022-11-11T04:10:55;3.40;99.90
15951;DHT22;8074;48.112;11.570;2022-11-11T04:13:21;3.30;99.90
15951;DHT22;8074;48.112;11.570;2022-11-11T04:16:06;3.20;99.90
15951;DHT22;8074;48.112;11.570;2022-11-11T04:18:34;3.20;99.90
15951;DHT22;8074;48.112;11.570;2022-11-11T04:21:21;3.10;99.90
15951;DHT22;8074;48.112;11.570;2022-11-11T04:24:06;3.30;99.90
15951;DHT22;8074;48.112;11.570;2022-11-11T04:26:47;3.40;99.90
15951;DHT22;8074;48.112;11.570;2022-11-11T04:29:14;3.30;99.90
15951;DHT22;8074;48.112;11.570;2022-11-11T04:31:56;3.40;99.90
15951;DHT22;8074;48.112;11.570;2022-11-11T04:34:56;3.10;99.90
15951;DHT22;8074;48.112;11.570;2022-11-11T04:37:26;3.10;99.90
15951;DHT22;8074;48.112;11.570;2022-11-11T04:39:54;3.20;99.90
15951;DHT22;8074;48.112;11.570;2022-11-11T04:42:38;3.00;99.90
15951;DHT22;8074;48.112;11.570;2022-11-11T04:45:06;2.70;99.90
15951;DHT22;8074;48.112;11.570;2022-11-11T04:47:53;2.60;99.90
15951;DHT22;8074;48.112;11.570;2022-11-11T04:50:21;2.70;99.90
15951;DHT22;8074;48.112;11.570;2022-11-11T04:52:49;2.80;99.90
15951;DHT22;8074;48.112;11.570;2022-11-11T04:55:16;2.80;99.90
15951;DHT22;8074;48.112;11.570;2022-11-11T04:58:01;2.80;99.90
15951;DHT22;8074;48.112;11.570;2022-11-11T05:00:28;2.70;99.90
15951;DHT22;8074;48.112;11.570;2022-11-11T05:02:55;2.70;99.90
15951;DHT22;8074;48.112;11.570;2022-11-11T05:05:40;2.80;99.90
15951;DHT22;8074;48.112;11.570;2022-11-11T05:08:26;2.80;99.90
15951;DHT22;8074;48.112;11.570;2022-11-11T05:11:10;2.90;99.90
15951;DHT22;8074;48.112;11.570;2022-11-11T05:13:37;2.90;99.90
15951;DHT22;8074;48.112;11.570;2022-11-11T05:16:26;3.00;99.90
15951;DHT22;8074;48.112;11.570;2022-11-11T05:19:12;3.00;99.90
15951;DHT22;8074;48.112;11.570;2022-11-11T05:22:05;3.10;99.90
15951;DHT22;8074;48.112;11.570;2022-11-11T05:24:35;3.20;99.90
15951;DHT22;8074;48.112;11.570;2022-11-11T05:27:19;3.30;99.90
15951;DHT22;8074;48.112;11.570;2022-11-11T05:29:46;3.10;99.90
15951;DHT22;8074;48.112;11.570;2022-11-11T05:32:15;2.70;99.90
15951;DHT22;8074;48.112;11.570;2022-11-11T05:34:43;2.70;99.90
15951;DHT22;8074;48.112;11.570;2022-11-11T05:37:10;3.00;99.90
15951;DHT22;8074;48.112;11.570;2022-11-11T05:39:38;3.10;99.90
15951;DHT22;8074;48.112;11.570;2022-11-11T05:42:05;3.00;99.90
15951;DHT22;8074;48.112;11.570;2022-11-11T05:44:32;3.00;99.90
15951;DHT22;8074;48.112;11.570;2022-11-11T05:46:59;3.00;99.90
15951;DHT22;8074;48.112;11.570;2022-11-11T05:49:26;3.20;99.90
15951;DHT22;8074;48.112;11.570;2022-11-11T05:51:53;3.20;99.90
15951;DHT22;8074;48.112;11.570;2022-11-11T05:54:21;3.30;99.90
15951;DHT22;8074;48.112;11.570;2022-11-11T05:56:50;3.30;99.90
15951;DHT22;8074;48.112;11.570;2022-11-11T05:59:17;3.40;99.90
15951;DHT22;8074;48.112;11.570;2022-11-11T06:01:44;3.40;99.90
15951;DHT22;8074;48.112;11.570;2022-11-11T06:04:11;3.20;99.90
15951;DHT22;8074;48.112;11.570;2022-11-11T06:06:38;3.00;99.90
15951;DHT22;8074;48.112;11.570;2022-11-11T06:09:05;2.90;99.90
15951;DHT22;8074;48.112;11.570;2022-11-11T06:11:32;3.10;99.90
15951;DHT22;8074;48.112;11.570;2022-11-11T06:14:00;3.30;99.90
15951;DHT22;8074;48.112;11.570;2022-11-11T06:16:27;3.20;99.90
15951;DHT22;8074;48.112;11.570;2022-11-11T06:18:54;3.30;99.90
15951;DHT22;8074;48.112;11.570;2022-11-11T06:21:21;3.30;99.90
15951;DHT22;8074;48.112;11.570;2022-11-11T06:23:47;3.30;99.90
15951;DHT22;8074;48.112;11.570;2022-11-11T06:26:14;3.50;99.90
15951;DHT22;8074;48.112;11.570;2022-11-11T06:28:43;3.30;99.90
15951;DHT22;8074;48.112;11.570;2022-11-11T06:31:14;3.30;99.90
15951;DHT22;8074;48.112;11.570;2022-11-11T06:33:41;3.20;99.90
15951;DHT22;8074;48.112;11.570;2022-11-11T06:36:10;3.30;99.90
15951;DHT22;8074;48.112;11.570;2022-11-11T06:38:38;3.30;99.90
15951;DHT22;8074;48.112;11.570;2022-11-11T06:41:05;3.40;99.90
15951;DHT22;8074;48.112;11.570;2022-11-11T06:43:32;3.50;99.90
15951;DHT22;8074;48.112;11.570;2022-11-11T06:45:58;3.50;99.90
15951;DHT22;8074;48.112;11.570;2022-11-11T06:48:28;3.60;99.90
15951;DHT22;8074;48.112;11.570;2022-11-11T06:51:00;3.40;99.90
15951;DHT22;8074;48.112;11.570;2022-11-11T06:53:27;3.20;99.90
15951;DHT22;8074;48.112;11.570;2022-11-11T06:55:54;3.30;99.90
15951;DHT22;8074;48.112;11.570;2022-11-11T06:58:22;3.60;99.90
15951;DHT22;8074;48.112;11.570;2022-11-11T07:00:49;3.80;99.90
15951;DHT22;8074;48.112;11.570;2022-11-11T07:03:19;3.60;99.90
15951;DHT22;8074;48.112;11.570;2022-11-11T07:05:48;3.70;99.90
15951;DHT22;8074;48.112;11.570;2022-11-11T07:08:20;4.00;99.90
15951;DHT22;8074;48.112;11.570;2022-11-11T07:10:47;4.10;99.90
15951;DHT22;8074;48.112;11.570;2022-11-11T07:13:15;4.20;99.90
15951;DHT22;8074;48.112;11.570;2022-11-11T07:15:43;4.20;99.90
15951;DHT22;8074;48.112;11.570;2022-11-11T07:18:10;4.40;99.90
15951;DHT22;8074;48.112;11.570;2022-11-11T07:20:38;4.70;99.90
15951;DHT22;8074;48.112;11.570;2022-11-11T07:23:06;4.50;99.90
15951;DHT22;8074;48.112;11.570;2022-11-11T07:25:33;4.20;99.90
15951;DHT22;8074;48.112;11.570;2022-11-11T07:28:00;4.50;99.90
15951;DHT22;8074;48.112;11.570;2022-11-11T07:30:27;4.80;99.90
15951;DHT22;8074;48.112;11.570;2022-11-11T07:32:54;4.90;99.90
15951;DHT22;8074;48.112;11.570;2022-11-11T07:35:21;5.20;99.90
15951;DHT22;8074;48.112;11.570;2022-11-11T07:37:48;5.40;99.90
15951;DHT22;8074;48.112;11.570;2022-11-11T07:40:18;5.70;99.90
15951;DHT22;8074;48.112;11.570;2022-11-11T07:43:01;5.80;99.90
15951;DHT22;8074;48.112;11.570;2022-11-11T07:45:29;5.70;99.90
15951;DHT22;8074;48.112;11.570;2022-11-11T07:47:56;5.80;99.90
15951;DHT22;8074;48.112;11.570;2022-11-11T07:50:23;6.10;99.90
15951;DHT22;8074;48.112;11.570;2022-11-11T07:52:50;6.50;99.90
15951;DHT22;8074;48.112;11.570;2022-11-11T07:55:21;6.60;99.90
15951;DHT22;8074;48.112;11.570;2022-11-11T07:57:51;6.70;99.90
15951;DHT22;8074;48.112;11.570;2022-11-11T08:00:18;6.90;99.90
15951;DHT22;8074;48.112;11.570;2022-11-11T08:02:46;6.90;99.90
15951;DHT22;8074;48.112;11.570;2022-11-11T08:05:16;7.10;99.90
15951;DHT22;8074;48.112;11.570;2022-11-11T08:07:43;7.50;99.90
15951;DHT22;8074;48.112;11.570;2022-11-11T08:10:11;7.80;99.90
15951;DHT22;8074;48.112;11.570;2022-11-11T08:12:40;8.10;99.90
15951;DHT22;8074;48.112;11.570;2022-11-11T08:15:25;8.10;99.90
15951;DHT22;8074;48.112;11.570;2022-11-11T08:17:53;8.30;99.90
15951;DHT22;8074;48.112;11.570;2022-11-11T08:20:23;8.30;99.90
15951;DHT22;8074;48.112;11.570;2022-11-11T08:23:02;8.30;99.90
15951;DHT22;8074;48.112;11.570;2022-11-11T08:25:30;8.10;99.90
15951;DHT22;8074;48.112;11.570;2022-11-11T08:28:00;8.30;99.90
15951;DHT22;8074;48.112;11.570;2022-11-11T08:30:28;8.40;99.90
15951;DHT22;8074;48.112;11.570;2022-11-11T08:32:57;8.60;99.90
15951;DHT22;8074;48.112;11.570;2022-11-11T08:35:24;8.50;99.90
15951;DHT22;8074;48.112;11.570;2022-11-11T08:37:51;8.10;99.90
15951;DHT22;8074;48.112;11.570;2022-11-11T08:40:19;8.20;99.90
15951;DHT22;8074;48.112;11.570;2022-11-11T08:42:47;7.90;99.90
15951;DHT22;8074;48.112;11.570;2022-11-11T08:45:19;8.20;99.90
15951;DHT22;8074;48.112;11.570;2022-11-11T08:47:46;8.50;99.90
15951;DHT22;8074;48.112;11.570;2022-11-11T08:50:14;8.50;99.90
15951;DHT22;8074;48.112;11.570;2022-11-11T08:52:44;8.90;99.90
15951;DHT22;8074;48.112;11.570;2022-11-11T08:55:11;9.40;99.90
15951;DHT22;8074;48.112;11.570;2022-11-11T08:57:44;9.90;99.90
15951;DHT22;8074;48.112;11.570;2022-11-11T09:02:54;9.70;99.90
15951;DHT22;8074;48.112;11.570;2022-11-11T09:08:51;9.60;99.90
15951;DHT22;8074;48.112;11.570;2022-11-11T09:11:27;9.40;99.90
15951;DHT22;8074;48.112;11.570;2022-11-11T09:14:07;9.40;99.90
15951;DHT22;8074;48.112;11.570;2022-11-11T09:17:30;10.00;99.90
15951;DHT22;8074;48.112;11.570;2022-11-11T09:20:15;10.30;99.90
15951;DHT22;8074;48.112;11.570;2022-11-11T09:22:59;11.30;99.90
15951;DHT22;8074;48.112;11.570;2022-11-11T09:25:28;11.80;99.90
15951;DHT22;8074;48.112;11.570;2022-11-11T09:27:59;12.20;99.90
15951;DHT22;8074;48.112;11.570;2022-11-11T09:30:28;12.50;99.90
15951;DHT22;8074;48.112;11.570;2022-11-11T09:33:09;13.00;99.90
15951;DHT22;8074;48.112;11.570;2022-11-11T09:35:42;13.50;99.90
15951;DHT22;8074;48.112;11.570;2022-11-11T09:38:09;13.50;99.90
15951;DHT22;8074;48.112;11.570;2022-11-11T09:40:59;13.30;99.90
15951;DHT22;8074;48.112;11.570;2022-11-11T09:43:45;13.60;99.90
15951;DHT22;8074;48.112;11.570;2022-11-11T09:49:21;13.70;99.90
15951;DHT22;8074;48.112;11.570;2022-11-11T09:51:55;14.40;99.90
15951;DHT22;8074;48.112;11.570;2022-11-11T09:54:31;13.40;99.90
15951;DHT22;8074;48.112;11.570;2022-11-11T09:57:04;13.20;99.90
15951;DHT22;8074;48.112;11.570;2022-11-11T09:59:40;13.60;99.90
15951;DHT22;8074;48.112;11.570;2022-11-11T10:02:24;14.60;99.90
15951;DHT22;8074;48.112;11.570;2022-11-11T10:04:56;15.40;99.90
15951;DHT22;8074;48.112;11.570;2022-11-11T10:07:34;15.80;99.90
15951;DHT22;8074;48.112;11.570;2022-11-11T10:10:07;15.50;99.90
15951;DHT22;8074;48.112;11.570;2022-11-11T10:12:44;14.10;99.90
15951;DHT22;8074;48.112;11.570;2022-11-11T10:15:13;13.90;99.90
15951;DHT22;8074;48.112;11.570;2022-11-11T10:17:48;13.80;99.90
15951;DHT22;8074;48.112;11.570;2022-11-11T10:20:21;13.90;99.90
15951;DHT22;8074;48.112;11.570;2022-11-11T10:22:56;14.80;99.90
15951;DHT22;8074;48.112;11.570;2022-11-11T10:25:26;15.40;99.90
15951;DHT22;8074;48.112;11.570;2022-11-11T10:27:56;15.50;99.90
15951;DHT22;8074;48.112;11.570;2022-11-11T10:30:25;16.50;99.90
15951;DHT22;8074;48.112;11.570;2022-11-11T10:32:56;17.20;99.90
15951;DHT22;8074;48.112;11.570;2022-11-11T10:35:25;17.20;99.90
15951;DHT22;8074;48.112;11.570;2022-11-11T10:38:00;18.30;99.90
15951;DHT22;8074;48.112;11.570;2022-11-11T10:40:36;17.80;99.90
15951;DHT22;8074;48.112;11.570;2022-11-11T10:43:13;17.20;99.90
15951;DHT22;8074;48.112;11.570;2022-11-11T10:45:48;16.70;99.90
15951;DHT22;8074;48.112;11.570;2022-11-11T10:48:20;15.60;99.90
15951;DHT22;8074;48.112;11.570;2022-11-11T10:50:50;16.50;99.90
15951;DHT22;8074;48.112;11.570;2022-11-11T10:53:26;16.70;99.90
15951;DHT22;8074;48.112;11.570;2022-11-11T10:56:01;16.60;99.90
15951;DHT22;8074;48.112;11.570;2022-11-11T10:58:33;15.60;99.90
15951;DHT22;8074;48.112;11.570;2022-11-11T11:01:05;15.50;99.90
15951;DHT22;8074;48.112;11.570;2022-11-11T11:03:36;16.10;99.90
15951;DHT22;8074;48.112;11.570;2022-11-11T11:06:09;17.40;99.90
15951;DHT22;8074;48.112;11.570;2022-11-11T11:08:41;17.40;99.90
15951;DHT22;8074;48.112;11.570;2022-11-11T11:11:18;16.80;99.90
15951;DHT22;8074;48.112;11.570;2022-11-11T11:13:49;17.90;99.90
15951;DHT22;8074;48.112;11.570;2022-11-11T11:16:22;18.40;99.90
15951;DHT22;8074;48.112;11.570;2022-11-11T11:19:14;19.10;99.90
15951;DHT22;8074;48.112;11.570;2022-11-11T11:21:53;20.50;99.90
15951;DHT22;8074;48.112;11.570;2022-11-11T11:24:23;20.50;99.90
15951;DHT22;8074;48.112;11.570;2022-11-11T11:26:53;20.80;99.90
15951;DHT22;8074;48.112;11.570;2022-11-11T11:29:25;20.40;99.90
15951;DHT22;8074;48.112;11.570;2022-11-11T11:31:52;19.50;99.90
15951;DHT22;8074;48.112;11.570;2022-11-11T11:34:19;19.00;99.90
15951;DHT22;8074;48.112;11.570;2022-11-11T11:37:02;18.60;99.90
15951;DHT22;8074;48.112;11.570;2022-11-11T11:39:37;18.40;99.90
15951;DHT22;8074;48.112;11.570;2022-11-11T11:42:04;18.70;99.90
15951;DHT22;8074;48.112;11.570;2022-11-11T11:44:33;19.10;99.90
15951;DHT22;8074;48.112;11.570;2022-11-11T11:47:13;19.50;99.90
15951;DHT22;8074;48.112;11.570;2022-11-11T11:50:07;19.50;99.90
15951;DHT22;8074;48.112;11.570;2022-11-11T11:52:49;19.50;99.90
15951;DHT22;8074;48.112;11.570;2022-11-11T11:55:21;19.00;99.90
15951;DHT22;8074;48.112;11.570;2022-11-11T11:57:59;18.40;99.90
15951;DHT22;8074;48.112;11.570;2022-11-11T12:00:32;18.30;99.90
15951;DHT22;8074;48.112;11.570;2022-11-11T12:03:16;18.60;99.90
15951;DHT22;8074;48.112;11.570;2022-11-11T12:05:48;18.60;99.90
15951;DHT22;8074;48.112;11.570;2022-11-11T12:08:42;18.30;99.90
15951;DHT22;8074;48.112;11.570;2022-11-11T12:11:19;18.30;99.90
15951;DHT22;8074;48.112;11.570;2022-11-11T12:14:05;17.00;99.90
15951;DHT22;8074;48.112;11.570;2022-11-11T12:16:39;16.70;99.90
15951;DHT22;8074;48.112;11.570;2022-11-11T12:19:29;17.20;99.90
15951;DHT22;8074;48.112;11.570;2022-11-11T12:22:05;17.90;99.90
15951;DHT22;8074;48.112;11.570;2022-11-11T12:24:44;18.50;99.90
15951;DHT22;8074;48.112;11.570;2022-11-11T12:27:22;18.60;99.90
15951;DHT22;8074;48.112;11.570;2022-11-11T12:30:01;18.30;99.90
15951;DHT22;8074;48.112;11.570;2022-11-11T12:32:41;17.90;99.90
15951;DHT22;8074;48.112;11.570;2022-11-11T12:35:22;18.30;99.90
15951;DHT22;8074;48.112;11.570;2022-11-11T12:38:03;18.60;99.90
15951;DHT22;8074;48.112;11.570;2022-11-11T12:40:38;19.50;99.90
15951;DHT22;8074;48.112;11.570;2022-11-11T12:43:20;20.50;99.90
15951;DHT22;8074;48.112;11.570;2022-11-11T12:45:53;21.70;99.90
15951;DHT22;8074;48.112;11.570;2022-11-11T12:48:35;22.30;99.90
15951;DHT22;8074;48.112;11.570;2022-11-11T12:51:14;22.50;99.90
15951;DHT22;8074;48.112;11.570;2022-11-11T12:53:50;22.20;99.90
15951;DHT22;8074;48.112;11.570;2022-11-11T12:56:24;21.80;99.90
15951;DHT22;8074;48.112;11.570;2022-11-11T12:58:59;21.90;99.90
15951;DHT22;8074;48.112;11.570;2022-11-11T13:01:37;21.80;99.90
15951;DHT22;8074;48.112;11.570;2022-11-11T13:04:37;21.50;99.90
15951;DHT22;8074;48.112;11.570;2022-11-11T13:07:31;21.40;99.90
15951;DHT22;8074;48.112;11.570;2022-11-11T13:10:15;21.20;99.90
15951;DHT22;8074;48.112;11.570;2022-11-11T13:12:51;22.00;99.90
15951;DHT22;8074;48.112;11.570;2022-11-11T13:15:23;21.60;99.90
15951;DHT22;8074;48.112;11.570;2022-11-11T13:17:51;22.10;99.90
15951;DHT22;8074;48.112;11.570;2022-11-11T13:20:27;22.40;99.90
15951;DHT22;8074;48.112;11.570;2022-11-11T13:23:01;23.20;99.90
15951;DHT22;8074;48.112;11.570;2022-11-11T13:25:30;22.70;99.90
15951;DHT22;8074;48.112;11.570;2022-11-11T13:28:02;21.60;99.90
15951;DHT22;8074;48.112;11.570;2022-11-11T13:30:45;20.40;99.90
15951;DHT22;8074;48.112;11.570;2022-11-11T13:33:16;19.90;99.90
15951;DHT22;8074;48.112;11.570;2022-11-11T13:35:45;19.40;99.90
15951;DHT22;8074;48.112;11.570;2022-11-11T13:38:24;18.30;99.90
15951;DHT22;8074;48.112;11.570;2022-11-11T13:40:54;17.70;99.90
15951;DHT22;8074;48.112;11.570;2022-11-11T13:43:24;17.70;99.90
15951;DHT22;8074;48.112;11.570;2022-11-11T13:45:55;17.50;99.90
15951;DHT22;8074;48.112;11.570;2022-11-11T13:48:26;17.10;99.90
15951;DHT22;8074;48.112;11.570;2022-11-11T13:51:10;16.80;99.90
15951;DHT22;8074;48.112;11.570;2022-11-11T13:53:39;16.20;99.90
15951;DHT22;8074;48.112;11.570;2022-11-11T13:56:08;15.90;99.90
15951;DHT22;8074;48.112;11.570;2022-11-11T13:58:38;16.00;99.90
15951;DHT22;8074;48.112;11.570;2022-11-11T14:01:10;16.20;99.90
15951;DHT22;8074;48.112;11.570;2022-11-11T14:03:58;16.50;99.90
15951;DHT22;8074;48.112;11.570;2022-11-11T14:06:37;16.80;99.90
15951;DHT22;8074;48.112;11.570;2022-11-11T14:12:36;17.30;99.90
15951;DHT22;8074;48.112;11.570;2022-11-11T14:15:08;17.80;99.90
15951;DHT22;8074;48.112;11.570;2022-11-11T14:17:53;17.50;99.90
15951;DHT22;8074;48.112;11.570;2022-11-11T14:20:34;17.70;99.90
15951;DHT22;8074;48.112;11.570;2022-11-11T14:23:23;17.40;99.90
15951;DHT22;8074;48.112;11.570;2022-11-11T14:26:14;17.90;99.90
15951;DHT22;8074;48.112;11.570;2022-11-11T14:28:43;18.40;99.90
15951;DHT22;8074;48.112;11.570;2022-11-11T14:31:38;17.80;99.90
15951;DHT22;8074;48.112;11.570;2022-11-11T14:34:19;17.80;99.90
15951;DHT22;8074;48.112;11.570;2022-11-11T14:36:54;17.40;99.90
15951;DHT22;8074;48.112;11.570;2022-11-11T14:39:38;17.20;99.90
15951;DHT22;8074;48.112;11.570;2022-11-11T14:42:44;17.00;99.90
15951;DHT22;8074;48.112;11.570;2022-11-11T14:48:53;17.30;99.90
15951;DHT22;8074;48.112;11.570;2022-11-11T14:54:34;16.40;99.90
15951;DHT22;8074;48.112;11.570;2022-11-11T14:57:20;15.50;99.90
15951;DHT22;8074;48.112;11.570;2022-11-11T14:59:48;15.40;99.90
15951;DHT22;8074;48.112;11.570;2022-11-11T15:02:28;15.30;99.90
15951;DHT22;8074;48.112;11.570;2022-11-11T15:04:59;15.10;99.90
15951;DHT22;8074;48.112;11.570;2022-11-11T15:10:55;14.60;99.90
15951;DHT22;8074;48.112;11.570;2022-11-11T15:16:57;14.00;99.90
15951;DHT22;8074;48.112;11.570;2022-11-11T15:19:41;13.50;99.90
15951;DHT22;8074;48.112;11.570;2022-11-11T15:22:28;13.20;99.90
15951;DHT22;8074;48.112;11.570;2022-11-11T15:25:10;12.90;99.90
15951;DHT22;8074;48.112;11.570;2022-11-11T15:27:47;12.80;99.90
15951;DHT22;8074;48.112;11.570;2022-11-11T15:30:18;12.40;99.90
15951;DHT22;8074;48.112;11.570;2022-11-11T15:32:58;12.10;99.90
15951;DHT22;8074;48.112;11.570;2022-11-11T15:35:34;12.00;99.90
15951;DHT22;8074;48.112;11.570;2022-11-11T15:38:03;11.80;99.90
15951;DHT22;8074;48.112;11.570;2022-11-11T15:40:44;11.80;99.90
15951;DHT22;8074;48.112;11.570;2022-11-11T15:43:18;11.50;99.90
15951;DHT22;8074;48.112;11.570;2022-11-11T15:45:49;11.40;99.90
15951;DHT22;8074;48.112;11.570;2022-11-11T15:48:20;11.40;99.90
15951;DHT22;8074;48.112;11.570;2022-11-11T15:50:47;11.30;99.90
15951;DHT22;8074;48.112;11.570;2022-11-11T15:53:21;11.50;99.90
15951;DHT22;8074;48.112;11.570;2022-11-11T15:55:53;11.20;99.90
15951;DHT22;8074;48.112;11.570;2022-11-11T15:58:29;11.00;99.90
15951;DHT22;8074;48.112;11.570;2022-11-11T16:00:59;10.70;99.90
15951;DHT22;8074;48.112;11.570;2022-11-11T16:03:31;10.80;99.90
15951;DHT22;8074;48.112;11.570;2022-11-11T16:06:03;10.80;99.90
15951;DHT22;8074;48.112;11.570;2022-11-11T16:08:30;10.30;99.90
15951;DHT22;8074;48.112;11.570;2022-11-11T16:10:59;10.00;99.90
15951;DHT22;8074;48.112;11.570;2022-11-11T16:13:32;10.10;99.90
15951;DHT22;8074;48.112;11.570;2022-11-11T16:16:03;10.00;99.90
15951;DHT22;8074;48.112;11.570;2022-11-11T16:18:37;9.90;99.90
15951;DHT22;8074;48.112;11.570;2022-11-11T16:21:07;10.00;99.90
15951;DHT22;8074;48.112;11.570;2022-11-11T16:23:36;9.90;99.90
15951;DHT22;8074;48.112;11.570;2022-11-11T16:26:05;9.70;99.90
15951;DHT22;8074;48.112;11.570;2022-11-11T16:28:38;9.70;99.90
15951;DHT22;8074;48.112;11.570;2022-11-11T16:31:28;9.70;99.90
15951;DHT22;8074;48.112;11.570;2022-11-11T16:34:22;9.50;99.90
15951;DHT22;8074;48.112;11.570;2022-11-11T16:36:59;9.40;99.90
15951;DHT22;8074;48.112;11.570;2022-11-11T16:39:27;9.40;99.90
15951;DHT22;8074;48.112;11.570;2022-11-11T16:41:55;9.40;99.90
15951;DHT22;8074;48.112;11.570;2022-11-11T16:44:33;9.50;99.90